sensor_id;sensor_type;location;lat;lon;timestamp;P1;durP1;ratioP1;P2;durP2;ratioP2
19306;SDS011;9788;48.194;16.318;2024-03-23T00:55:34;9.52;;;7.05;;
19306;SDS011;9788;48.194;16.318;2024-03-23T00:58:01;12.15;;;7.22;;
19306;SDS011;9788;48.194;16.318;2024-03-23T01:00:30;13.27;;;7.57;;
19306;SDS011;9788;48.194;16.318;2024-03-23T01:03:00;9.85;;;7.20;;
19306;SDS011;9788;48.194;16.318;2024-03-23T01:05:27;14.65;;;7.20;;
19306;SDS011;9788;48.194;16.318;2024-03-23T01:07:55;14.93;;;8.85;;
19306;SDS011;9788;48.194;16.318;2024-03-23T01:10:21;19.20;;;9.90;;
19306;SDS011;9788;48.194;16.318;2024-03-23T01:12:50;19.55;;;9.07;;
19306;SDS011;9788;48.194;16.318;2024-03-23T01:15:17;20.85;;;9.30;;
19306;SDS011;9788;48.194;16.318;2024-03-23T01:17:43;10.20;;;7.25;;
19306;SDS011;9788;48.194;16.318;2024-03-23T01:20:12;13.82;;;8.15;;
19306;SDS011;9788;48.194;16.318;2024-03-23T01:22:39;11.70;;;7.57;;
19306;SDS011;9788;48.194;16.318;2024-03-23T01:25:07;14.13;;;8.88;;
19306;SDS011;9788;48.194;16.318;2024-03-23T01:27:35;11.98;;;7.13;;
19306;SDS011;9788;48.194;16.318;2024-03-23T01:30:02;13.10;;;7.30;;
19306;SDS011;9788;48.194;16.318;2024-03-23T01:32:30;15.10;;;7.53;;
19306;SDS011;9788;48.194;16.318;2024-03-23T01:34:58;10.63;;;7.10;;
19306;SDS011;9788;48.194;16.318;2024-03-23T01:37:28;10.60;;;7.15;;
19306;SDS011;9788;48.194;16.318;2024-03-23T01:39:55;14.15;;;7.03;;
19306;SDS011;9788;48.194;16.318;2024-03-23T01:42:22;10.15;;;6.40;;
19306;SDS011;9788;48.194;16.318;2024-03-23T01:44:49;8.93;;;6.07;;
19306;SDS011;9788;48.194;16.318;2024-03-23T01:47:16;11.32;;;7.18;;
19306;SDS011;9788;48.194;16.318;2024-03-23T01:49:43;11.13;;;6.47;;
19306;SDS011;9788;48.194;16.318;2024-03-23T01:52:10;10.45;;;6.70;;
19306;SDS011;9788;48.194;16.318;2024-03-23T01:54:38;12.23;;;6.90;;
19306;SDS011;9788;48.194;16.318;2024-03-23T01:57:06;9.23;;;6.88;;
19306;SDS011;9788;48.194;16.318;2024-03-23T01:59:33;9.75;;;6.45;;
19306;SDS011;9788;48.194;16.318;2024-03-23T02:02:01;9.77;;;6.85;;
19306;SDS011;9788;48.194;16.318;2024-03-23T02:04:29;8.57;;;6.30;;
19306;SDS011;9788;48.194;16.318;2024-03-23T02:06:55;11.75;;;6.88;;
19306;SDS011;9788;48.194;16.318;2024-03-23T02:09:23;9.75;;;6.53;;
19306;SDS011;9788;48.194;16.318;2024-03-23T02:11:51;9.85;;;5.65;;
19306;SDS011;9788;48.194;16.318;2024-03-23T02:14:18;10.52;;;6.43;;
19306;SDS011;9788;48.194;16.318;2024-03-23T02:16:45;12.10;;;6.93;;
19306;SDS011;9788;48.194;16.318;2024-03-23T02:19:13;11.68;;;6.50;;
19306;SDS011;9788;48.194;16.318;2024-03-23T02:21:40;11.75;;;6.82;;
19306;SDS011;9788;48.194;16.318;2024-03-23T02:24:09;11.63;;;6.65;;
19306;SDS011;9788;48.194;16.318;2024-03-23T02:26:35;11.95;;;7.10;;
19306;SDS011;9788;48.194;16.318;2024-03-23T02:29:03;8.18;;;6.28;;
19306;SDS011;9788;48.194;16.318;2024-03-23T02:31:29;9.82;;;6.72;;
19306;SDS011;9788;48.194;16.318;2024-03-23T02:33:59;8.80;;;6.93;;
19306;SDS011;9788;48.194;16.318;2024-03-23T02:36:25;14.02;;;8.40;;
19306;SDS011;9788;48.194;16.318;2024-03-23T02:38:53;12.68;;;6.57;;
19306;SDS011;9788;48.194;16.318;2024-03-23T02:41:21;10.15;;;7.05;;
19306;SDS011;9788;48.194;16.318;2024-03-23T02:43:49;12.13;;;8.15;;
19306;SDS011;9788;48.194;16.318;2024-03-23T02:46:15;12.80;;;8.52;;
19306;SDS011;9788;48.194;16.318;2024-03-23T02:48:42;10.48;;;6.95;;
19306;SDS011;9788;48.194;16.318;2024-03-23T02:51:09;8.02;;;6.05;;
19306;SDS011;9788;48.194;16.318;2024-03-23T02:53:36;7.88;;;5.90;;
19306;SDS011;9788;48.194;16.318;2024-03-23T02:56:03;9.13;;;6.65;;
19306;SDS011;9788;48.194;16.318;2024-03-23T02:58:32;12.35;;;6.28;;
19306;SDS011;9788;48.194;16.318;2024-03-23T03:00:58;9.25;;;6.47;;
19306;SDS011;9788;48.194;16.318;2024-03-23T03:03:26;12.13;;;7.22;;
19306;SDS011;9788;48.194;16.318;2024-03-23T03:05:54;10.82;;;6.63;;
19306;SDS011;9788;48.194;16.318;2024-03-23T03:08:23;8.10;;;6.22;;
19306;SDS011;9788;48.194;16.318;2024-03-23T03:10:50;9.52;;;6.70;;
19306;SDS011;9788;48.194;16.318;2024-03-23T03:13:17;13.60;;;6.70;;
19306;SDS011;9788;48.194;16.318;2024-03-23T03:15:46;9.48;;;6.40;;
19306;SDS011;9788;48.194;16.318;2024-03-23T03:18:13;10.35;;;6.25;;
19306;SDS011;9788;48.194;16.318;2024-03-23T03:20:40;9.63;;;6.53;;
19306;SDS011;9788;48.194;16.318;2024-03-23T03:23:07;9.57;;;6.65;;
19306;SDS011;9788;48.194;16.318;2024-03-23T03:25:35;10.85;;;6.57;;
19306;SDS011;9788;48.194;16.318;2024-03-23T03:28:02;9.75;;;6.43;;
19306;SDS011;9788;48.194;16.318;2024-03-23T03:30:29;11.00;;;6.50;;
19306;SDS011;9788;48.194;16.318;2024-03-23T03:33:03;9.10;;;6.90;;
19306;SDS011;9788;48.194;16.318;2024-03-23T03:35:29;10.00;;;6.60;;
19306;SDS011;9788;48.194;16.318;2024-03-23T03:37:57;11.95;;;6.47;;
19306;SDS011;9788;48.194;16.318;2024-03-23T03:40:33;12.88;;;7.25;;
19306;SDS011;9788;48.194;16.318;2024-03-23T03:43:00;10.13;;;6.75;;
19306;SDS011;9788;48.194;16.318;2024-03-23T03:45:28;11.80;;;7.07;;
19306;SDS011;9788;48.194;16.318;2024-03-23T03:47:56;10.98;;;7.35;;
19306;SDS011;9788;48.194;16.318;2024-03-23T03:50:24;10.05;;;6.38;;
19306;SDS011;9788;48.194;16.318;2024-03-23T03:52:51;9.40;;;6.60;;
19306;SDS011;9788;48.194;16.318;2024-03-23T03:55:18;8.80;;;6.50;;
19306;SDS011;9788;48.194;16.318;2024-03-23T03:57:48;9.30;;;6.30;;
19306;SDS011;9788;48.194;16.318;2024-03-23T04:00:15;8.07;;;6.20;;
19306;SDS011;9788;48.194;16.318;2024-03-23T04:02:42;13.60;;;7.20;;
19306;SDS011;9788;48.194;16.318;2024-03-23T04:05:08;10.20;;;6.78;;
19306;SDS011;9788;48.194;16.318;2024-03-23T04:07:37;11.18;;;7.18;;
19306;SDS011;9788;48.194;16.318;2024-03-23T04:10:04;12.30;;;7.25;;
19306;SDS011;9788;48.194;16.318;2024-03-23T04:12:33;10.00;;;6.90;;
19306;SDS011;9788;48.194;16.318;2024-03-23T04:15:00;13.95;;;8.35;;
19306;SDS011;9788;48.194;16.318;2024-03-23T04:17:29;9.43;;;6.97;;
19306;SDS011;9788;48.194;16.318;2024-03-23T04:19:57;9.82;;;6.03;;
19306;SDS011;9788;48.194;16.318;2024-03-23T04:22:25;10.65;;;6.80;;
19306;SDS011;9788;48.194;16.318;2024-03-23T04:24:53;9.65;;;6.72;;
19306;SDS011;9788;48.194;16.318;2024-03-23T04:27:21;11.73;;;7.07;;
19306;SDS011;9788;48.194;16.318;2024-03-23T04:29:49;10.63;;;6.65;;
19306;SDS011;9788;48.194;16.318;2024-03-23T04:32:16;9.30;;;6.10;;
19306;SDS011;9788;48.194;16.318;2024-03-23T04:34:43;11.95;;;6.97;;
19306;SDS011;9788;48.194;16.318;2024-03-23T04:37:11;9.48;;;6.35;;
19306;SDS011;9788;48.194;16.318;2024-03-23T04:39:38;9.75;;;6.10;;
19306;SDS011;9788;48.194;16.318;2024-03-23T04:42:09;9.38;;;6.03;;
19306;SDS011;9788;48.194;16.318;2024-03-23T04:44:38;10.43;;;5.63;;
19306;SDS011;9788;48.194;16.318;2024-03-23T04:47:06;9.32;;;6.22;;
19306;SDS011;9788;48.194;16.318;2024-03-23T04:49:34;7.82;;;5.82;;
19306;SDS011;9788;48.194;16.318;2024-03-23T04:52:02;7.53;;;6.47;;
19306;SDS011;9788;48.194;16.318;2024-03-23T04:54:30;10.93;;;6.57;;
19306;SDS011;9788;48.194;16.318;2024-03-23T04:56:59;13.00;;;6.15;;
19306;SDS011;9788;48.194;16.318;2024-03-23T04:59:26;12.43;;;6.25;;
19306;SDS011;9788;48.194;16.318;2024-03-23T05:01:54;9.70;;;6.20;;
19306;SDS011;9788;48.194;16.318;2024-03-23T05:04:20;10.57;;;6.35;;
19306;SDS011;9788;48.194;16.318;2024-03-23T05:06:48;12.30;;;6.30;;
19306;SDS011;9788;48.194;16.318;2024-03-23T05:09:14;10.25;;;6.32;;
19306;SDS011;9788;48.194;16.318;2024-03-23T05:11:44;9.63;;;5.90;;
19306;SDS011;9788;48.194;16.318;2024-03-23T05:14:10;9.02;;;6.10;;
19306;SDS011;9788;48.194;16.318;2024-03-23T05:16:40;14.13;;;6.80;;
19306;SDS011;9788;48.194;16.318;2024-03-23T05:19:06;11.52;;;6.70;;
19306;SDS011;9788;48.194;16.318;2024-03-23T05:21:34;9.85;;;6.15;;
19306;SDS011;9788;48.194;16.318;2024-03-23T05:24:00;11.00;;;7.07;;
19306;SDS011;9788;48.194;16.318;2024-03-23T05:26:28;9.15;;;6.13;;
19306;SDS011;9788;48.194;16.318;2024-03-23T05:28:54;12.82;;;6.45;;
19306;SDS011;9788;48.194;16.318;2024-03-23T05:31:22;10.20;;;6.43;;
19306;SDS011;9788;48.194;16.318;2024-03-23T05:33:51;10.40;;;6.85;;
19306;SDS011;9788;48.194;16.318;2024-03-23T05:36:18;11.07;;;6.13;;
19306;SDS011;9788;48.194;16.318;2024-03-23T05:38:44;11.18;;;6.85;;
19306;SDS011;9788;48.194;16.318;2024-03-23T05:41:12;7.97;;;6.20;;
19306;SDS011;9788;48.194;16.318;2024-03-23T05:43:38;10.07;;;6.60;;
19306;SDS011;9788;48.194;16.318;2024-03-23T05:46:07;7.20;;;5.72;;
19306;SDS011;9788;48.194;16.318;2024-03-23T05:48:34;10.15;;;6.50;;
19306;SDS011;9788;48.194;16.318;2024-03-23T05:51:03;12.68;;;6.05;;
19306;SDS011;9788;48.194;16.318;2024-03-23T05:53:31;7.63;;;5.80;;
19306;SDS011;9788;48.194;16.318;2024-03-23T05:56:00;12.52;;;6.00;;
19306;SDS011;9788;48.194;16.318;2024-03-23T05:58:29;8.18;;;6.05;;
19306;SDS011;9788;48.194;16.318;2024-03-23T06:00:57;9.35;;;5.43;;
19306;SDS011;9788;48.194;16.318;2024-03-23T06:03:25;8.23;;;5.63;;
19306;SDS011;9788;48.194;16.318;2024-03-23T06:05:53;6.95;;;6.07;;
19306;SDS011;9788;48.194;16.318;2024-03-23T06:08:21;8.25;;;6.00;;
19306;SDS011;9788;48.194;16.318;2024-03-23T06:10:49;10.25;;;6.18;;
19306;SDS011;9788;48.194;16.318;2024-03-23T06:13:16;11.18;;;6.05;;
19306;SDS011;9788;48.194;16.318;2024-03-23T06:15:45;11.55;;;6.25;;
19306;SDS011;9788;48.194;16.318;2024-03-23T06:18:12;8.48;;;5.97;;
19306;SDS011;9788;48.194;16.318;2024-03-23T06:20:39;10.77;;;6.45;;
19306;SDS011;9788;48.194;16.318;2024-03-23T06:23:05;10.70;;;6.53;;
19306;SDS011;9788;48.194;16.318;2024-03-23T06:25:35;11.10;;;6.15;;
19306;SDS011;9788;48.194;16.318;2024-03-23T06:28:02;9.75;;;6.18;;
19306;SDS011;9788;48.194;16.318;2024-03-23T06:30:30;9.50;;;5.97;;
19306;SDS011;9788;48.194;16.318;2024-03-23T06:32:57;8.52;;;6.10;;
19306;SDS011;9788;48.194;16.318;2024-03-23T06:35:24;8.55;;;5.80;;
19306;SDS011;9788;48.194;16.318;2024-03-23T06:37:52;9.95;;;6.35;;
19306;SDS011;9788;48.194;16.318;2024-03-23T06:40:19;9.20;;;6.65;;
19306;SDS011;9788;48.194;16.318;2024-03-23T06:42:47;11.95;;;6.75;;
19306;SDS011;9788;48.194;16.318;2024-03-23T06:45:16;11.10;;;6.68;;
19306;SDS011;9788;48.194;16.318;2024-03-23T06:47:45;9.88;;;6.63;;
19306;SDS011;9788;48.194;16.318;2024-03-23T06:50:12;12.60;;;6.68;;
19306;SDS011;9788;48.194;16.318;2024-03-23T06:52:41;12.68;;;7.57;;
19306;SDS011;9788;48.194;16.318;2024-03-23T06:55:09;11.10;;;7.28;;
19306;SDS011;9788;48.194;16.318;2024-03-23T06:57:36;12.40;;;7.00;;
19306;SDS011;9788;48.194;16.318;2024-03-23T07:00:06;14.55;;;7.07;;
19306;SDS011;9788;48.194;16.318;2024-03-23T07:02:37;14.07;;;8.60;;
19306;SDS011;9788;48.194;16.318;2024-03-23T07:05:04;15.10;;;7.22;;
19306;SDS011;9788;48.194;16.318;2024-03-23T07:07:33;13.35;;;7.28;;
19306;SDS011;9788;48.194;16.318;2024-03-23T07:09:59;11.43;;;7.70;;
19306;SDS011;9788;48.194;16.318;2024-03-23T07:12:28;11.13;;;7.35;;
19306;SDS011;9788;48.194;16.318;2024-03-23T07:14:56;10.40;;;6.88;;
19306;SDS011;9788;48.194;16.318;2024-03-23T07:17:25;10.63;;;7.15;;
19306;SDS011;9788;48.194;16.318;2024-03-23T07:19:53;14.77;;;7.35;;
19306;SDS011;9788;48.194;16.318;2024-03-23T07:22:21;10.57;;;7.05;;
19306;SDS011;9788;48.194;16.318;2024-03-23T07:24:49;10.35;;;7.30;;
19306;SDS011;9788;48.194;16.318;2024-03-23T07:27:19;11.02;;;7.95;;
19306;SDS011;9788;48.194;16.318;2024-03-23T07:29:46;11.45;;;7.28;;
19306;SDS011;9788;48.194;16.318;2024-03-23T07:32:14;10.82;;;6.68;;
19306;SDS011;9788;48.194;16.318;2024-03-23T07:34:43;11.90;;;7.85;;
19306;SDS011;9788;48.194;16.318;2024-03-23T07:37:11;11.70;;;7.22;;
19306;SDS011;9788;48.194;16.318;2024-03-23T07:39:42;10.55;;;6.45;;
19306;SDS011;9788;48.194;16.318;2024-03-23T07:42:10;7.80;;;6.03;;
19306;SDS011;9788;48.194;16.318;2024-03-23T07:44:36;18.55;;;10.02;;
19306;SDS011;9788;48.194;16.318;2024-03-23T07:47:04;19.17;;;10.02;;
19306;SDS011;9788;48.194;16.318;2024-03-23T07:49:33;40.42;;;17.35;;
19306;SDS011;9788;48.194;16.318;2024-03-23T07:52:02;14.90;;;9.02;;
19306;SDS011;9788;48.194;16.318;2024-03-23T07:54:30;9.85;;;6.32;;
19306;SDS011;9788;48.194;16.318;2024-03-23T07:56:57;14.90;;;6.95;;
19306;SDS011;9788;48.194;16.318;2024-03-23T07:59:24;10.73;;;6.10;;
19306;SDS011;9788;48.194;16.318;2024-03-23T08:01:51;10.65;;;6.45;;
19306;SDS011;9788;48.194;16.318;2024-03-23T08:04:18;9.68;;;6.82;;
19306;SDS011;9788;48.194;16.318;2024-03-23T08:06:46;8.05;;;6.35;;
19306;SDS011;9788;48.194;16.318;2024-03-23T08:09:14;10.23;;;6.70;;
19306;SDS011;9788;48.194;16.318;2024-03-23T08:11:42;8.40;;;7.38;;
19306;SDS011;9788;48.194;16.318;2024-03-23T08:14:10;13.15;;;9.57;;
19306;SDS011;9788;48.194;16.318;2024-03-23T08:16:40;9.25;;;8.25;;
19306;SDS011;9788;48.194;16.318;2024-03-23T08:19:07;9.05;;;8.15;;
19306;SDS011;9788;48.194;16.318;2024-03-23T08:21:37;11.30;;;8.70;;
19306;SDS011;9788;48.194;16.318;2024-03-23T08:24:04;10.32;;;8.88;;
19306;SDS011;9788;48.194;16.318;2024-03-23T08:26:33;10.25;;;8.65;;
19306;SDS011;9788;48.194;16.318;2024-03-23T08:28:59;12.95;;;8.63;;
19306;SDS011;9788;48.194;16.318;2024-03-23T08:31:28;12.60;;;8.35;;
19306;SDS011;9788;48.194;16.318;2024-03-23T08:33:54;10.60;;;8.07;;
19306;SDS011;9788;48.194;16.318;2024-03-23T08:36:22;10.07;;;7.95;;
19306;SDS011;9788;48.194;16.318;2024-03-23T08:38:50;10.18;;;7.97;;
19306;SDS011;9788;48.194;16.318;2024-03-23T08:41:19;9.02;;;8.10;;
19306;SDS011;9788;48.194;16.318;2024-03-23T08:43:47;9.68;;;7.05;;
19306;SDS011;9788;48.194;16.318;2024-03-23T08:46:15;11.35;;;7.22;;
19306;SDS011;9788;48.194;16.318;2024-03-23T08:48:44;7.25;;;6.45;;
19306;SDS011;9788;48.194;16.318;2024-03-23T08:51:15;8.40;;;6.30;;
19306;SDS011;9788;48.194;16.318;2024-03-23T08:53:43;7.75;;;6.35;;
19306;SDS011;9788;48.194;16.318;2024-03-23T08:56:10;5.80;;;5.30;;
19306;SDS011;9788;48.194;16.318;2024-03-23T08:58:38;4.85;;;4.38;;
19306;SDS011;9788;48.194;16.318;2024-03-23T09:01:07;5.07;;;4.30;;
19306;SDS011;9788;48.194;16.318;2024-03-23T09:03:36;5.40;;;4.18;;
19306;SDS011;9788;48.194;16.318;2024-03-23T09:06:06;4.47;;;3.80;;
19306;SDS011;9788;48.194;16.318;2024-03-23T09:08:33;6.22;;;3.67;;
19306;SDS011;9788;48.194;16.318;2024-03-23T09:11:03;4.15;;;3.08;;
19306;SDS011;9788;48.194;16.318;2024-03-23T09:13:31;4.35;;;3.22;;
19306;SDS011;9788;48.194;16.318;2024-03-23T09:16:03;5.18;;;3.88;;
19306;SDS011;9788;48.194;16.318;2024-03-23T09:18:32;4.82;;;3.58;;
19306;SDS011;9788;48.194;16.318;2024-03-23T09:21:01;6.50;;;3.80;;
19306;SDS011;9788;48.194;16.318;2024-03-23T09:23:28;4.40;;;3.53;;
19306;SDS011;9788;48.194;16.318;2024-03-23T09:25:55;3.78;;;3.38;;
19306;SDS011;9788;48.194;16.318;2024-03-23T09:28:21;3.50;;;3.20;;
19306;SDS011;9788;48.194;16.318;2024-03-23T09:30:49;4.47;;;3.40;;
19306;SDS011;9788;48.194;16.318;2024-03-23T09:33:15;4.47;;;3.05;;
19306;SDS011;9788;48.194;16.318;2024-03-23T09:35:45;6.30;;;3.47;;
19306;SDS011;9788;48.194;16.318;2024-03-23T09:38:12;3.88;;;2.90;;
19306;SDS011;9788;48.194;16.318;2024-03-23T09:40:40;4.55;;;3.00;;
19306;SDS011;9788;48.194;16.318;2024-03-23T09:43:07;4.13;;;2.83;;
19306;SDS011;9788;48.194;16.318;2024-03-23T09:45:36;3.38;;;3.08;;
19306;SDS011;9788;48.194;16.318;2024-03-23T09:48:10;3.58;;;2.50;;
19306;SDS011;9788;48.194;16.318;2024-03-23T09:50:38;3.50;;;2.80;;
19306;SDS011;9788;48.194;16.318;2024-03-23T09:53:07;3.60;;;2.70;;
19306;SDS011;9788;48.194;16.318;2024-03-23T09:55:35;3.65;;;2.60;;
19306;SDS011;9788;48.194;16.318;2024-03-23T09:58:04;3.13;;;2.75;;
19306;SDS011;9788;48.194;16.318;2024-03-23T10:00:32;5.30;;;2.55;;
19306;SDS011;9788;48.194;16.318;2024-03-23T10:02:59;3.17;;;2.50;;
19306;SDS011;9788;48.194;16.318;2024-03-23T10:05:28;2.88;;;2.45;;
19306;SDS011;9788;48.194;16.318;2024-03-23T10:07:56;2.75;;;2.53;;
19306;SDS011;9788;48.194;16.318;2024-03-23T10:10:29;4.50;;;2.28;;
19306;SDS011;9788;48.194;16.318;2024-03-23T10:12:55;5.25;;;2.70;;
19306;SDS011;9788;48.194;16.318;2024-03-23T10:15:23;5.00;;;2.60;;
19306;SDS011;9788;48.194;16.318;2024-03-23T10:17:51;4.47;;;2.30;;
19306;SDS011;9788;48.194;16.318;2024-03-23T10:20:19;3.35;;;2.30;;
19306;SDS011;9788;48.194;16.318;2024-03-23T10:22:49;2.90;;;1.92;;
19306;SDS011;9788;48.194;16.318;2024-03-23T10:25:22;4.85;;;2.15;;
19306;SDS011;9788;48.194;16.318;2024-03-23T10:27:59;5.70;;;2.58;;
19306;SDS011;9788;48.194;16.318;2024-03-23T10:30:27;2.58;;;1.85;;
19306;SDS011;9788;48.194;16.318;2024-03-23T10:33:06;5.22;;;2.70;;
19306;SDS011;9788;48.194;16.318;2024-03-23T10:35:34;3.20;;;2.28;;
19306;SDS011;9788;48.194;16.318;2024-03-23T10:38:00;2.22;;;1.90;;
19306;SDS011;9788;48.194;16.318;2024-03-23T10:40:31;2.83;;;1.70;;
19306;SDS011;9788;48.194;16.318;2024-03-23T10:43:02;3.85;;;2.40;;
19306;SDS011;9788;48.194;16.318;2024-03-23T10:45:30;4.45;;;2.83;;
19306;SDS011;9788;48.194;16.318;2024-03-23T10:47:58;3.17;;;2.88;;
19306;SDS011;9788;48.194;16.318;2024-03-23T10:50:26;6.63;;;4.00;;
19306;SDS011;9788;48.194;16.318;2024-03-23T10:52:54;2.75;;;1.90;;
19306;SDS011;9788;48.194;16.318;2024-03-23T10:55:24;7.53;;;2.50;;
19306;SDS011;9788;48.194;16.318;2024-03-23T10:57:54;5.53;;;2.28;;
19306;SDS011;9788;48.194;16.318;2024-03-23T11:00:25;5.13;;;1.90;;
19306;SDS011;9788;48.194;16.318;2024-03-23T11:02:51;3.22;;;1.30;;
19306;SDS011;9788;48.194;16.318;2024-03-23T11:05:28;6.47;;;1.80;;
19306;SDS011;9788;48.194;16.318;2024-03-23T11:07:55;4.25;;;1.67;;
19306;SDS011;9788;48.194;16.318;2024-03-23T11:10:26;3.20;;;1.70;;
19306;SDS011;9788;48.194;16.318;2024-03-23T11:12:55;3.05;;;1.45;;
19306;SDS011;9788;48.194;16.318;2024-03-23T11:15:24;2.95;;;1.50;;
19306;SDS011;9788;48.194;16.318;2024-03-23T11:18:03;4.18;;;1.70;;
19306;SDS011;9788;48.194;16.318;2024-03-23T11:20:33;4.80;;;1.60;;
19306;SDS011;9788;48.194;16.318;2024-03-23T11:23:02;4.93;;;1.65;;
19306;SDS011;9788;48.194;16.318;2024-03-23T11:25:30;5.20;;;2.33;;
19306;SDS011;9788;48.194;16.318;2024-03-23T11:27:56;4.70;;;1.95;;
19306;SDS011;9788;48.194;16.318;2024-03-23T11:30:37;5.53;;;2.25;;
19306;SDS011;9788;48.194;16.318;2024-03-23T11:33:04;4.07;;;2.20;;
19306;SDS011;9788;48.194;16.318;2024-03-23T11:35:33;2.15;;;1.95;;
19306;SDS011;9788;48.194;16.318;2024-03-23T11:38:01;3.97;;;1.65;;
19306;SDS011;9788;48.194;16.318;2024-03-23T11:40:29;3.85;;;2.10;;
19306;SDS011;9788;48.194;16.318;2024-03-23T11:42:57;3.00;;;1.98;;
19306;SDS011;9788;48.194;16.318;2024-03-23T11:45:26;2.40;;;2.15;;
19306;SDS011;9788;48.194;16.318;2024-03-23T11:48:04;2.75;;;1.75;;
19306;SDS011;9788;48.194;16.318;2024-03-23T11:50:33;5.05;;;1.88;;
19306;SDS011;9788;48.194;16.318;2024-03-23T11:53:07;3.25;;;1.75;;
19306;SDS011;9788;48.194;16.318;2024-03-23T11:55:40;2.50;;;2.00;;
19306;SDS011;9788;48.194;16.318;2024-03-23T11:58:07;4.38;;;2.10;;
19306;SDS011;9788;48.194;16.318;2024-03-23T12:00:36;7.03;;;6.35;;
19306;SDS011;9788;48.194;16.318;2024-03-23T12:03:05;5.57;;;2.63;;
19306;SDS011;9788;48.194;16.318;2024-03-23T12:05:33;25.70;;;18.13;;
19306;SDS011;9788;48.194;16.318;2024-03-23T12:08:16;6.72;;;2.85;;
19306;SDS011;9788;48.194;16.318;2024-03-23T12:10:50;2.63;;;1.90;;
19306;SDS011;9788;48.194;16.318;2024-03-23T12:13:18;5.57;;;2.22;;
19306;SDS011;9788;48.194;16.318;2024-03-23T12:15:52;5.63;;;2.30;;
19306;SDS011;9788;48.194;16.318;2024-03-23T12:18:24;3.63;;;2.63;;
19306;SDS011;9788;48.194;16.318;2024-03-23T12:20:51;5.53;;;2.60;;
19306;SDS011;9788;48.194;16.318;2024-03-23T12:23:17;3.60;;;2.20;;
19306;SDS011;9788;48.194;16.318;2024-03-23T12:25:48;4.43;;;2.30;;
19306;SDS011;9788;48.194;16.318;2024-03-23T12:28:15;2.35;;;1.88;;
19306;SDS011;9788;48.194;16.318;2024-03-23T12:30:42;2.45;;;1.98;;
19306;SDS011;9788;48.194;16.318;2024-03-23T12:33:10;2.95;;;1.60;;
19306;SDS011;9788;48.194;16.318;2024-03-23T12:35:38;3.58;;;2.05;;
19306;SDS011;9788;48.194;16.318;2024-03-23T12:38:05;3.67;;;2.20;;
19306;SDS011;9788;48.194;16.318;2024-03-23T12:40:32;4.40;;;2.42;;
19306;SDS011;9788;48.194;16.318;2024-03-23T12:43:01;5.47;;;2.42;;
19306;SDS011;9788;48.194;16.318;2024-03-23T12:45:27;4.05;;;2.25;;
19306;SDS011;9788;48.194;16.318;2024-03-23T12:47:54;5.70;;;2.03;;
19306;SDS011;9788;48.194;16.318;2024-03-23T12:50:21;5.30;;;2.15;;
19306;SDS011;9788;48.194;16.318;2024-03-23T12:52:50;10.85;;;2.83;;
19306;SDS011;9788;48.194;16.318;2024-03-23T12:55:16;16.77;;;2.70;;
19306;SDS011;9788;48.194;16.318;2024-03-23T12:57:45;8.38;;;2.40;;
19306;SDS011;9788;48.194;16.318;2024-03-23T13:00:12;3.42;;;1.98;;
19306;SDS011;9788;48.194;16.318;2024-03-23T13:02:41;7.10;;;1.90;;
19306;SDS011;9788;48.194;16.318;2024-03-23T13:05:07;7.28;;;1.92;;
19306;SDS011;9788;48.194;16.318;2024-03-23T13:07:35;5.05;;;1.73;;
19306;SDS011;9788;48.194;16.318;2024-03-23T13:10:04;6.03;;;1.88;;
19306;SDS011;9788;48.194;16.318;2024-03-23T13:12:32;5.10;;;1.67;;
19306;SDS011;9788;48.194;16.318;2024-03-23T13:14:59;5.32;;;1.60;;
19306;SDS011;9788;48.194;16.318;2024-03-23T13:17:26;3.00;;;1.42;;
19306;SDS011;9788;48.194;16.318;2024-03-23T13:19:54;3.35;;;1.30;;
19306;SDS011;9788;48.194;16.318;2024-03-23T13:22:21;4.25;;;1.15;;
19306;SDS011;9788;48.194;16.318;2024-03-23T13:24:49;2.60;;;1.20;;
19306;SDS011;9788;48.194;16.318;2024-03-23T13:27:17;3.03;;;1.85;;
19306;SDS011;9788;48.194;16.318;2024-03-23T13:29:47;1.55;;;1.10;;
19306;SDS011;9788;48.194;16.318;2024-03-23T13:32:14;1.70;;;1.05;;
19306;SDS011;9788;48.194;16.318;2024-03-23T13:34:41;3.83;;;1.48;;
19306;SDS011;9788;48.194;16.318;2024-03-23T13:37:07;2.72;;;1.20;;
19306;SDS011;9788;48.194;16.318;2024-03-23T13:39:38;2.53;;;1.27;;
19306;SDS011;9788;48.194;16.318;2024-03-23T13:42:07;2.15;;;1.30;;
19306;SDS011;9788;48.194;16.318;2024-03-23T13:44:40;2.50;;;1.17;;
19306;SDS011;9788;48.194;16.318;2024-03-23T13:47:06;3.22;;;1.20;;
19306;SDS011;9788;48.194;16.318;2024-03-23T13:49:33;1.50;;;1.20;;
19306;SDS011;9788;48.194;16.318;2024-03-23T13:52:00;3.95;;;1.23;;
19306;SDS011;9788;48.194;16.318;2024-03-23T13:54:27;2.03;;;1.08;;
19306;SDS011;9788;48.194;16.318;2024-03-23T13:56:55;1.42;;;1.13;;
19306;SDS011;9788;48.194;16.318;2024-03-23T13:59:22;2.25;;;1.30;;
19306;SDS011;9788;48.194;16.318;2024-03-23T14:01:51;2.78;;;1.20;;
19306;SDS011;9788;48.194;16.318;2024-03-23T14:04:22;2.25;;;1.40;;
19306;SDS011;9788;48.194;16.318;2024-03-23T14:06:58;1.40;;;1.20;;
19306;SDS011;9788;48.194;16.318;2024-03-23T14:09:29;1.83;;;1.50;;
19306;SDS011;9788;48.194;16.318;2024-03-23T14:11:58;2.47;;;1.65;;
19306;SDS011;9788;48.194;16.318;2024-03-23T14:14:29;3.38;;;1.60;;
19306;SDS011;9788;48.194;16.318;2024-03-23T14:17:00;4.03;;;1.30;;
19306;SDS011;9788;48.194;16.318;2024-03-23T14:19:34;1.90;;;1.33;;
19306;SDS011;9788;48.194;16.318;2024-03-23T14:22:15;2.15;;;1.33;;
19306;SDS011;9788;48.194;16.318;2024-03-23T14:24:53;1.55;;;1.40;;
19306;SDS011;9788;48.194;16.318;2024-03-23T14:27:25;1.70;;;1.35;;
19306;SDS011;9788;48.194;16.318;2024-03-23T14:29:53;2.83;;;1.42;;
19306;SDS011;9788;48.194;16.318;2024-03-23T14:32:24;4.15;;;1.40;;
19306;SDS011;9788;48.194;16.318;2024-03-23T14:34:51;1.40;;;1.30;;
19306;SDS011;9788;48.194;16.318;2024-03-23T14:37:28;3.17;;;2.10;;
19306;SDS011;9788;48.194;16.318;2024-03-23T14:39:56;6.45;;;3.10;;
19306;SDS011;9788;48.194;16.318;2024-03-23T14:42:25;3.03;;;1.80;;
19306;SDS011;9788;48.194;16.318;2024-03-23T14:44:53;2.13;;;1.92;;
19306;SDS011;9788;48.194;16.318;2024-03-23T14:47:24;1.95;;;1.73;;
19306;SDS011;9788;48.194;16.318;2024-03-23T14:49:51;1.70;;;1.60;;
19306;SDS011;9788;48.194;16.318;2024-03-23T14:52:21;2.70;;;2.00;;
19306;SDS011;9788;48.194;16.318;2024-03-23T14:54:51;2.00;;;1.80;;
19306;SDS011;9788;48.194;16.318;2024-03-23T14:57:17;3.88;;;1.58;;
19306;SDS011;9788;48.194;16.318;2024-03-23T14:59:45;1.30;;;1.20;;
19306;SDS011;9788;48.194;16.318;2024-03-23T15:02:12;1.50;;;1.40;;
19306;SDS011;9788;48.194;16.318;2024-03-23T15:04:44;1.67;;;1.58;;
19306;SDS011;9788;48.194;16.318;2024-03-23T15:07:16;2.22;;;1.50;;
19306;SDS011;9788;48.194;16.318;2024-03-23T15:09:48;4.35;;;1.60;;
19306;SDS011;9788;48.194;16.318;2024-03-23T15:12:18;2.25;;;1.42;;
19306;SDS011;9788;48.194;16.318;2024-03-23T15:14:46;3.15;;;2.28;;
19306;SDS011;9788;48.194;16.318;2024-03-23T15:17:14;4.57;;;1.58;;
19306;SDS011;9788;48.194;16.318;2024-03-23T15:19:42;4.75;;;1.40;;
19306;SDS011;9788;48.194;16.318;2024-03-23T15:22:28;2.53;;;1.40;;
19306;SDS011;9788;48.194;16.318;2024-03-23T15:24:56;2.37;;;1.73;;
19306;SDS011;9788;48.194;16.318;2024-03-23T15:27:24;1.90;;;1.70;;
19306;SDS011;9788;48.194;16.318;2024-03-23T15:29:51;2.60;;;1.70;;
19306;SDS011;9788;48.194;16.318;2024-03-23T15:32:18;1.80;;;1.50;;
19306;SDS011;9788;48.194;16.318;2024-03-23T15:34:47;2.78;;;1.63;;
19306;SDS011;9788;48.194;16.318;2024-03-23T15:37:19;1.60;;;1.50;;
19306;SDS011;9788;48.194;16.318;2024-03-23T15:40:10;2.53;;;1.75;;
19306;SDS011;9788;48.194;16.318;2024-03-23T15:42:41;1.70;;;1.30;;
19306;SDS011;9788;48.194;16.318;2024-03-23T15:45:15;2.80;;;1.23;;